sensor_id;sensor_type;location;lat;lon;timestamp;temperature;humidity
20728;DHT22;10525;50.154;8.198;2022-11-20T00:00:38;1.70;99.90
20728;DHT22;10525;50.154;8.198;2022-11-20T00:03:05;1.70;99.90
20728;DHT22;10525;50.154;8.198;2022-11-20T00:05:32;1.70;99.90
20728;DHT22;10525;50.154;8.198;2022-11-20T00:07:59;1.60;99.90
20728;DHT22;10525;50.154;8.198;2022-11-20T00:10:25;1.60;99.90
20728;DHT22;10525;50.154;8.198;2022-11-20T00:12:52;1.60;99.90
20728;DHT22;10525;50.154;8.198;2022-11-20T00:15:19;1.60;99.90
20728;DHT22;10525;50.154;8.198;2022-11-20T00:17:47;1.50;99.90
20728;DHT22;10525;50.154;8.198;2022-11-20T00:20:14;1.60;99.90
20728;DHT22;10525;50.154;8.198;2022-11-20T00:22:41;1.70;99.90
20728;DHT22;10525;50.154;8.198;2022-11-20T00:25:08;1.70;99.90
20728;DHT22;10525;50.154;8.198;2022-11-20T00:27:35;1.60;99.90
20728;DHT22;10525;50.154;8.198;2022-11-20T00:30:02;1.50;99.90
20728;DHT22;10525;50.154;8.198;2022-11-20T00:32:29;1.50;99.90
20728;DHT22;10525;50.154;8.198;2022-11-20T00:34:57;1.50;99.90
20728;DHT22;10525;50.154;8.198;2022-11-20T00:37:25;1.60;99.90
20728;DHT22;10525;50.154;8.198;2022-11-20T00:39:52;1.60;99.90
20728;DHT22;10525;50.154;8.198;2022-11-20T00:42:18;1.60;99.90
20728;DHT22;10525;50.154;8.198;2022-11-20T00:44:45;1.60;99.90
20728;DHT22;10525;50.154;8.198;2022-11-20T00:47:12;1.60;99.90
20728;DHT22;10525;50.154;8.198;2022-11-20T00:49:38;1.60;99.90
20728;DHT22;10525;50.154;8.198;2022-11-20T00:52:06;1.60;99.90
20728;DHT22;10525;50.154;8.198;2022-11-20T00:54:33;1.70;99.90
20728;DHT22;10525;50.154;8.198;2022-11-20T00:57:00;1.70;99.90
20728;DHT22;10525;50.154;8.198;2022-11-20T00:59:27;1.70;99.90
20728;DHT22;10525;50.154;8.198;2022-11-20T01:01:53;1.70;99.90
20728;DHT22;10525;50.154;8.198;2022-11-20T01:04:20;1.70;99.90
20728;DHT22;10525;50.154;8.198;2022-11-20T01:06:47;1.70;99.90
20728;DHT22;10525;50.154;8.198;2022-11-20T01:09:15;1.70;99.90
20728;DHT22;10525;50.154;8.198;2022-11-20T01:11:43;1.70;99.90
20728;DHT22;10525;50.154;8.198;2022-11-20T01:14:12;1.70;99.90
20728;DHT22;10525;50.154;8.198;2022-11-20T01:16:42;1.80;99.90
20728;DHT22;10525;50.154;8.198;2022-11-20T01:19:10;1.70;99.90
20728;DHT22;10525;50.154;8.198;2022-11-20T01:21:40;1.60;99.90
20728;DHT22;10525;50.154;8.198;2022-11-20T01:24:10;1.60;99.90
20728;DHT22;10525;50.154;8.198;2022-11-20T01:26:40;1.60;99.90
20728;DHT22;10525;50.154;8.198;2022-11-20T01:29:10;1.60;99.90
20728;DHT22;10525;50.154;8.198;2022-11-20T01:31:38;1.60;99.90
20728;DHT22;10525;50.154;8.198;2022-11-20T01:34:08;1.70;99.90
20728;DHT22;10525;50.154;8.198;2022-11-20T01:36:37;1.60;99.90
20728;DHT22;10525;50.154;8.198;2022-11-20T01:39:06;1.60;99.90
20728;DHT22;10525;50.154;8.198;2022-11-20T01:41:34;1.60;99.90
20728;DHT22;10525;50.154;8.198;2022-11-20T01:44:21;1.60;99.90
20728;DHT22;10525;50.154;8.198;2022-11-20T01:46:55;1.50;99.90
20728;DHT22;10525;50.154;8.198;2022-11-20T01:49:26;1.50;99.90
20728;DHT22;10525;50.154;8.198;2022-11-20T01:51:56;1.50;99.90
20728;DHT22;10525;50.154;8.198;2022-11-20T01:54:28;1.50;99.90
20728;DHT22;10525;50.154;8.198;2022-11-20T01:56:58;1.50;99.90
20728;DHT22;10525;50.154;8.198;2022-11-20T01:59:28;1.50;99.90
20728;DHT22;10525;50.154;8.198;2022-11-20T02:01:56;1.50;99.90
20728;DHT22;10525;50.154;8.198;2022-11-20T02:04:23;1.60;99.90
20728;DHT22;10525;50.154;8.198;2022-11-20T02:06:55;1.60;99.90
20728;DHT22;10525;50.154;8.198;2022-11-20T02:09:23;1.60;99.90
20728;DHT22;10525;50.154;8.198;2022-11-20T02:11:50;1.60;99.90
20728;DHT22;10525;50.154;8.198;2022-11-20T02:14:17;1.70;99.90
20728;DHT22;10525;50.154;8.198;2022-11-20T02:16:46;1.70;99.90
20728;DHT22;10525;50.154;8.198;2022-11-20T02:19:19;1.70;99.90
20728;DHT22;10525;50.154;8.198;2022-11-20T02:21:54;1.70;99.90
20728;DHT22;10525;50.154;8.198;2022-11-20T02:24:23;1.70;99.90
20728;DHT22;10525;50.154;8.198;2022-11-20T02:26:52;1.70;99.90
20728;DHT22;10525;50.154;8.198;2022-11-20T02:29:24;1.60;99.90
20728;DHT22;10525;50.154;8.198;2022-11-20T02:31:54;1.60;99.90
20728;DHT22;10525;50.154;8.198;2022-11-20T02:34:22;1.60;99.90
20728;DHT22;10525;50.154;8.198;2022-11-20T02:36:50;1.50;99.90
20728;DHT22;10525;50.154;8.198;2022-11-20T02:39:19;1.50;99.90
20728;DHT22;10525;50.154;8.198;2022-11-20T02:41:48;1.60;99.90
20728;DHT22;10525;50.154;8.198;2022-11-20T02:44:15;1.60;99.90
20728;DHT22;10525;50.154;8.198;2022-11-20T02:46:41;1.60;99.90
20728;DHT22;10525;50.154;8.198;2022-11-20T02:49:08;1.60;99.90
20728;DHT22;10525;50.154;8.198;2022-11-20T02:51:35;1.60;99.90
20728;DHT22;10525;50.154;8.198;2022-11-20T02:54:02;1.70;99.90
20728;DHT22;10525;50.154;8.198;2022-11-20T02:56:28;1.60;99.90
20728;DHT22;10525;50.154;8.198;2022-11-20T02:58:57;1.60;99.90
20728;DHT22;10525;50.154;8.198;2022-11-20T03:01:23;1.60;99.90
20728;DHT22;10525;50.154;8.198;2022-11-20T03:03:50;1.70;99.90
20728;DHT22;10525;50.154;8.198;2022-11-20T03:06:19;1.70;99.90
20728;DHT22;10525;50.154;8.198;2022-11-20T03:08:46;1.70;99.90
20728;DHT22;10525;50.154;8.198;2022-11-20T03:11:13;1.70;99.90
20728;DHT22;10525;50.154;8.198;2022-11-20T03:13:39;1.60;99.90
20728;DHT22;10525;50.154;8.198;2022-11-20T03:16:10;1.60;99.90
20728;DHT22;10525;50.154;8.198;2022-11-20T03:18:37;1.70;99.90
20728;DHT22;10525;50.154;8.198;2022-11-20T03:21:05;1.70;99.90
20728;DHT22;10525;50.154;8.198;2022-11-20T03:23:32;1.70;99.90
20728;DHT22;10525;50.154;8.198;2022-11-20T03:26:13;1.70;99.90
20728;DHT22;10525;50.154;8.198;2022-11-20T03:28:40;1.70;99.90
20728;DHT22;10525;50.154;8.198;2022-11-20T03:31:10;1.70;99.90
20728;DHT22;10525;50.154;8.198;2022-11-20T03:33:38;1.70;99.90
20728;DHT22;10525;50.154;8.198;2022-11-20T03:36:07;1.70;99.90
20728;DHT22;10525;50.154;8.198;2022-11-20T03:38:34;1.70;99.90
20728;DHT22;10525;50.154;8.198;2022-11-20T03:41:02;1.70;99.90
20728;DHT22;10525;50.154;8.198;2022-11-20T03:43:29;1.80;99.90
20728;DHT22;10525;50.154;8.198;2022-11-20T03:45:55;1.80;99.90
20728;DHT22;10525;50.154;8.198;2022-11-20T03:48:24;1.70;99.90
20728;DHT22;10525;50.154;8.198;2022-11-20T03:50:51;1.70;99.90
20728;DHT22;10525;50.154;8.198;2022-11-20T03:53:18;1.70;99.90
20728;DHT22;10525;50.154;8.198;2022-11-20T03:55:45;1.70;99.90
20728;DHT22;10525;50.154;8.198;2022-11-20T03:58:16;1.70;99.90
20728;DHT22;10525;50.154;8.198;2022-11-20T04:00:43;1.70;99.90
20728;DHT22;10525;50.154;8.198;2022-11-20T04:03:10;1.70;99.90
20728;DHT22;10525;50.154;8.198;2022-11-20T04:05:38;1.70;99.90
20728;DHT22;10525;50.154;8.198;2022-11-20T04:08:05;1.70;99.90
20728;DHT22;10525;50.154;8.198;2022-11-20T04:10:32;1.80;99.90
20728;DHT22;10525;50.154;8.198;2022-11-20T04:12:58;1.80;99.90
20728;DHT22;10525;50.154;8.198;2022-11-20T04:15:25;1.90;99.90
20728;DHT22;10525;50.154;8.198;2022-11-20T04:17:52;1.90;99.90
20728;DHT22;10525;50.154;8.198;2022-11-20T04:20:20;1.80;99.90
20728;DHT22;10525;50.154;8.198;2022-11-20T04:22:48;1.80;99.90
20728;DHT22;10525;50.154;8.198;2022-11-20T04:25:14;1.80;99.90
20728;DHT22;10525;50.154;8.198;2022-11-20T04:27:41;1.90;99.90
20728;DHT22;10525;50.154;8.198;2022-11-20T04:30:09;1.90;99.90
20728;DHT22;10525;50.154;8.198;2022-11-20T04:32:35;1.90;99.90
20728;DHT22;10525;50.154;8.198;2022-11-20T04:35:02;1.80;99.90
20728;DHT22;10525;50.154;8.198;2022-11-20T04:37:29;1.90;99.90
20728;DHT22;10525;50.154;8.198;2022-11-20T04:39:57;1.80;99.90
20728;DHT22;10525;50.154;8.198;2022-11-20T04:42:24;1.80;99.90
20728;DHT22;10525;50.154;8.198;2022-11-20T04:44:57;1.80;99.90
20728;DHT22;10525;50.154;8.198;2022-11-20T04:47:24;1.90;99.90
20728;DHT22;10525;50.154;8.198;2022-11-20T04:49:50;1.90;99.90
20728;DHT22;10525;50.154;8.198;2022-11-20T04:52:17;1.90;99.90
20728;DHT22;10525;50.154;8.198;2022-11-20T04:54:44;1.90;99.90
20728;DHT22;10525;50.154;8.198;2022-11-20T04:57:14;1.90;99.90
20728;DHT22;10525;50.154;8.198;2022-11-20T04:59:41;2.00;99.90
20728;DHT22;10525;50.154;8.198;2022-11-20T05:02:08;2.00;99.90
20728;DHT22;10525;50.154;8.198;2022-11-20T05:04:34;2.00;99.90
20728;DHT22;10525;50.154;8.198;2022-11-20T05:07:01;2.00;99.90
20728;DHT22;10525;50.154;8.198;2022-11-20T05:09:28;2.00;99.90
20728;DHT22;10525;50.154;8.198;2022-11-20T05:11:54;2.10;99.90
20728;DHT22;10525;50.154;8.198;2022-11-20T05:14:22;2.00;99.90
20728;DHT22;10525;50.154;8.198;2022-11-20T05:16:49;2.00;99.90
20728;DHT22;10525;50.154;8.198;2022-11-20T05:19:16;2.00;99.90
20728;DHT22;10525;50.154;8.198;2022-11-20T05:21:42;2.00;99.90
20728;DHT22;10525;50.154;8.198;2022-11-20T05:24:09;1.90;99.90
20728;DHT22;10525;50.154;8.198;2022-11-20T05:26:36;2.00;99.90
20728;DHT22;10525;50.154;8.198;2022-11-20T05:29:03;2.00;99.90
20728;DHT22;10525;50.154;8.198;2022-11-20T05:31:31;1.90;99.90
20728;DHT22;10525;50.154;8.198;2022-11-20T05:33:58;1.90;99.90
20728;DHT22;10525;50.154;8.198;2022-11-20T05:36:24;2.00;99.90
20728;DHT22;10525;50.154;8.198;2022-11-20T05:38:51;1.90;99.90
20728;DHT22;10525;50.154;8.198;2022-11-20T05:41:19;1.90;99.90
20728;DHT22;10525;50.154;8.198;2022-11-20T05:43:47;1.90;99.90
20728;DHT22;10525;50.154;8.198;2022-11-20T05:46:16;1.90;99.90
20728;DHT22;10525;50.154;8.198;2022-11-20T05:48:45;1.90;99.90
20728;DHT22;10525;50.154;8.198;2022-11-20T05:51:14;1.90;99.90
20728;DHT22;10525;50.154;8.198;2022-11-20T05:53:41;2.00;99.90
20728;DHT22;10525;50.154;8.198;2022-11-20T05:56:10;2.10;99.90
20728;DHT22;10525;50.154;8.198;2022-11-20T05:58:37;2.10;99.90
20728;DHT22;10525;50.154;8.198;2022-11-20T06:01:06;2.00;99.90
20728;DHT22;10525;50.154;8.198;2022-11-20T06:03:33;2.00;99.90
20728;DHT22;10525;50.154;8.198;2022-11-20T06:06:02;2.00;99.90
20728;DHT22;10525;50.154;8.198;2022-11-20T06:08:29;2.00;99.90
20728;DHT22;10525;50.154;8.198;2022-11-20T06:10:56;2.00;99.90
20728;DHT22;10525;50.154;8.198;2022-11-20T06:13:22;2.00;99.90
20728;DHT22;10525;50.154;8.198;2022-11-20T06:15:49;2.00;99.90
20728;DHT22;10525;50.154;8.198;2022-11-20T06:18:16;2.10;99.90
20728;DHT22;10525;50.154;8.198;2022-11-20T06:20:43;2.10;99.90
20728;DHT22;10525;50.154;8.198;2022-11-20T06:23:11;2.10;99.90
20728;DHT22;10525;50.154;8.198;2022-11-20T06:25:38;2.20;99.90
20728;DHT22;10525;50.154;8.198;2022-11-20T06:28:05;2.20;99.90
20728;DHT22;10525;50.154;8.198;2022-11-20T06:30:32;2.20;99.90
20728;DHT22;10525;50.154;8.198;2022-11-20T06:32:59;2.20;99.90
20728;DHT22;10525;50.154;8.198;2022-11-20T06:35:25;2.20;99.90
20728;DHT22;10525;50.154;8.198;2022-11-20T06:37:52;2.20;99.90
20728;DHT22;10525;50.154;8.198;2022-11-20T06:40:20;2.20;99.90
20728;DHT22;10525;50.154;8.198;2022-11-20T06:42:47;2.20;99.90
20728;DHT22;10525;50.154;8.198;2022-11-20T06:45:13;2.10;99.90
20728;DHT22;10525;50.154;8.198;2022-11-20T06:47:40;2.20;99.90
20728;DHT22;10525;50.154;8.198;2022-11-20T06:50:07;2.20;99.90
20728;DHT22;10525;50.154;8.198;2022-11-20T06:52:34;2.00;99.90
20728;DHT22;10525;50.154;8.198;2022-11-20T06:55:01;2.00;99.90
20728;DHT22;10525;50.154;8.198;2022-11-20T06:57:29;2.00;99.90
20728;DHT22;10525;50.154;8.198;2022-11-20T06:59:55;2.00;99.90
20728;DHT22;10525;50.154;8.198;2022-11-20T07:02:22;1.90;99.90
20728;DHT22;10525;50.154;8.198;2022-11-20T07:04:49;1.90;99.90
20728;DHT22;10525;50.154;8.198;2022-11-20T07:07:15;1.90;99.90
20728;DHT22;10525;50.154;8.198;2022-11-20T07:09:42;1.90;99.90
20728;DHT22;10525;50.154;8.198;2022-11-20T07:12:09;1.90;99.90
20728;DHT22;10525;50.154;8.198;2022-11-20T07:14:37;1.90;99.90
20728;DHT22;10525;50.154;8.198;2022-11-20T07:17:03;2.00;99.90
20728;DHT22;10525;50.154;8.198;2022-11-20T07:19:30;2.00;99.90
20728;DHT22;10525;50.154;8.198;2022-11-20T07:21:57;2.10;99.90
20728;DHT22;10525;50.154;8.198;2022-11-20T07:24:23;2.10;99.90
20728;DHT22;10525;50.154;8.198;2022-11-20T07:26:50;2.30;99.90
20728;DHT22;10525;50.154;8.198;2022-11-20T07:29:17;2.20;99.90
20728;DHT22;10525;50.154;8.198;2022-11-20T07:31:45;2.20;99.90
20728;DHT22;10525;50.154;8.198;2022-11-20T07:34:11;2.10;99.90
20728;DHT22;10525;50.154;8.198;2022-11-20T07:36:38;2.10;99.90
20728;DHT22;10525;50.154;8.198;2022-11-20T07:39:05;2.20;99.90
20728;DHT22;10525;50.154;8.198;2022-11-20T07:41:32;2.10;99.90
20728;DHT22;10525;50.154;8.198;2022-11-20T07:43:59;2.10;99.90
20728;DHT22;10525;50.154;8.198;2022-11-20T07:46:26;2.20;99.90
20728;DHT22;10525;50.154;8.198;2022-11-20T07:48:54;2.20;99.90
20728;DHT22;10525;50.154;8.198;2022-11-20T07:51:21;2.20;99.90
20728;DHT22;10525;50.154;8.198;2022-11-20T07:53:50;2.30;99.90
20728;DHT22;10525;50.154;8.198;2022-11-20T07:56:16;2.30;99.90
20728;DHT22;10525;50.154;8.198;2022-11-20T07:58:43;2.40;99.90
20728;DHT22;10525;50.154;8.198;2022-11-20T08:01:10;2.30;99.90
20728;DHT22;10525;50.154;8.198;2022-11-20T08:03:36;2.40;99.90
20728;DHT22;10525;50.154;8.198;2022-11-20T08:06:06;2.50;99.90
20728;DHT22;10525;50.154;8.198;2022-11-20T08:08:32;2.40;99.90
20728;DHT22;10525;50.154;8.198;2022-11-20T08:10:59;2.40;99.90
20728;DHT22;10525;50.154;8.198;2022-11-20T08:13:40;2.40;99.90
20728;DHT22;10525;50.154;8.198;2022-11-20T08:16:24;2.40;99.90
20728;DHT22;10525;50.154;8.198;2022-11-20T08:18:50;2.30;99.90
20728;DHT22;10525;50.154;8.198;2022-11-20T08:21:18;2.30;99.90
20728;DHT22;10525;50.154;8.198;2022-11-20T08:23:45;2.40;99.90
20728;DHT22;10525;50.154;8.198;2022-11-20T08:26:12;2.40;99.90
20728;DHT22;10525;50.154;8.198;2022-11-20T08:28:38;2.60;99.90
20728;DHT22;10525;50.154;8.198;2022-11-20T08:31:05;2.70;99.90
20728;DHT22;10525;50.154;8.198;2022-11-20T08:33:32;2.70;99.90
20728;DHT22;10525;50.154;8.198;2022-11-20T08:35:59;2.70;99.90
20728;DHT22;10525;50.154;8.198;2022-11-20T08:38:28;2.70;99.90
20728;DHT22;10525;50.154;8.198;2022-11-20T08:40:56;2.70;99.90
20728;DHT22;10525;50.154;8.198;2022-11-20T08:43:41;2.80;99.90
20728;DHT22;10525;50.154;8.198;2022-11-20T08:46:07;2.80;99.90
20728;DHT22;10525;50.154;8.198;2022-11-20T08:48:34;2.90;99.90
20728;DHT22;10525;50.154;8.198;2022-11-20T08:51:01;2.80;99.90
20728;DHT22;10525;50.154;8.198;2022-11-20T08:53:29;2.90;99.90
20728;DHT22;10525;50.154;8.198;2022-11-20T08:55:56;2.90;99.90
20728;DHT22;10525;50.154;8.198;2022-11-20T08:58:23;3.00;99.90
20728;DHT22;10525;50.154;8.198;2022-11-20T09:00:50;3.10;99.90
20728;DHT22;10525;50.154;8.198;2022-11-20T09:03:16;3.20;99.90
20728;DHT22;10525;50.154;8.198;2022-11-20T09:05:43;3.20;99.90
20728;DHT22;10525;50.154;8.198;2022-11-20T09:08:10;3.30;99.90
20728;DHT22;10525;50.154;8.198;2022-11-20T09:10:38;3.30;99.90
20728;DHT22;10525;50.154;8.198;2022-11-20T09:13:06;3.30;99.90
20728;DHT22;10525;50.154;8.198;2022-11-20T09:15:33;3.40;99.90
20728;DHT22;10525;50.154;8.198;2022-11-20T09:18:01;3.60;99.90
20728;DHT22;10525;50.154;8.198;2022-11-20T09:20:29;3.70;99.90
20728;DHT22;10525;50.154;8.198;2022-11-20T09:22:56;3.70;99.90
20728;DHT22;10525;50.154;8.198;2022-11-20T09:25:23;3.70;99.90
20728;DHT22;10525;50.154;8.198;2022-11-20T09:27:56;3.70;99.90
20728;DHT22;10525;50.154;8.198;2022-11-20T09:30:23;3.90;99.90
20728;DHT22;10525;50.154;8.198;2022-11-20T09:32:49;3.90;99.90
20728;DHT22;10525;50.154;8.198;2022-11-20T09:35:16;3.70;99.90
20728;DHT22;10525;50.154;8.198;2022-11-20T09:37:44;3.90;99.90
20728;DHT22;10525;50.154;8.198;2022-11-20T09:40:19;3.90;99.90
20728;DHT22;10525;50.154;8.198;2022-11-20T09:42:52;3.90;99.90
20728;DHT22;10525;50.154;8.198;2022-11-20T09:45:35;4.00;99.90
20728;DHT22;10525;50.154;8.198;2022-11-20T09:48:22;4.10;99.90
20728;DHT22;10525;50.154;8.198;2022-11-20T09:50:56;4.00;99.90
20728;DHT22;10525;50.154;8.198;2022-11-20T09:53:30;4.10;99.90
20728;DHT22;10525;50.154;8.198;2022-11-20T09:55:57;4.10;99.90
20728;DHT22;10525;50.154;8.198;2022-11-20T09:58:31;4.10;99.90
20728;DHT22;10525;50.154;8.198;2022-11-20T10:01:08;4.40;99.90
20728;DHT22;10525;50.154;8.198;2022-11-20T10:03:41;4.40;99.90
20728;DHT22;10525;50.154;8.198;2022-11-20T10:06:13;4.40;99.90
20728;DHT22;10525;50.154;8.198;2022-11-20T10:08:45;4.50;99.90
20728;DHT22;10525;50.154;8.198;2022-11-20T10:11:18;4.40;99.90
20728;DHT22;10525;50.154;8.198;2022-11-20T10:13:52;4.30;99.90
20728;DHT22;10525;50.154;8.198;2022-11-20T10:16:32;4.10;99.90
20728;DHT22;10525;50.154;8.198;2022-11-20T10:19:12;4.00;99.90
20728;DHT22;10525;50.154;8.198;2022-11-20T10:21:55;4.10;99.90
20728;DHT22;10525;50.154;8.198;2022-11-20T10:24:37;4.10;99.90
20728;DHT22;10525;50.154;8.198;2022-11-20T10:27:14;4.20;99.90
20728;DHT22;10525;50.154;8.198;2022-11-20T10:29:49;4.20;99.90
20728;DHT22;10525;50.154;8.198;2022-11-20T10:32:30;4.30;99.90
20728;DHT22;10525;50.154;8.198;2022-11-20T10:35:00;4.20;99.90
20728;DHT22;10525;50.154;8.198;2022-11-20T10:37:29;4.40;99.90
20728;DHT22;10525;50.154;8.198;2022-11-20T10:40:01;4.40;99.90
20728;DHT22;10525;50.154;8.198;2022-11-20T10:42:37;4.30;99.90
20728;DHT22;10525;50.154;8.198;2022-11-20T10:45:15;4.40;99.90
20728;DHT22;10525;50.154;8.198;2022-11-20T10:47:46;4.30;99.90
20728;DHT22;10525;50.154;8.198;2022-11-20T10:50:16;4.40;99.90
20728;DHT22;10525;50.154;8.198;2022-11-20T10:52:52;4.60;99.90
20728;DHT22;10525;50.154;8.198;2022-11-20T10:55:29;4.50;99.90
20728;DHT22;10525;50.154;8.198;2022-11-20T10:58:03;4.60;99.90
20728;DHT22;10525;50.154;8.198;2022-11-20T11:00:32;4.60;99.90
20728;DHT22;10525;50.154;8.198;2022-11-20T11:03:00;4.70;99.90
20728;DHT22;10525;50.154;8.198;2022-11-20T11:05:35;4.70;99.90
20728;DHT22;10525;50.154;8.198;2022-11-20T11:08:05;4.90;99.90
20728;DHT22;10525;50.154;8.198;2022-11-20T11:10:39;4.90;99.90
20728;DHT22;10525;50.154;8.198;2022-11-20T11:13:19;4.90;99.90
20728;DHT22;10525;50.154;8.198;2022-11-20T11:15:46;5.00;99.90
20728;DHT22;10525;50.154;8.198;2022-11-20T11:18:23;5.20;99.90
20728;DHT22;10525;50.154;8.198;2022-11-20T11:20:50;5.20;99.90
20728;DHT22;10525;50.154;8.198;2022-11-20T11:23:30;5.50;99.90
20728;DHT22;10525;50.154;8.198;2022-11-20T11:25:58;5.60;99.90
20728;DHT22;10525;50.154;8.198;2022-11-20T11:28:26;5.80;99.90
20728;DHT22;10525;50.154;8.198;2022-11-20T11:30:54;5.90;99.90
20728;DHT22;10525;50.154;8.198;2022-11-20T11:33:24;5.70;99.90
20728;DHT22;10525;50.154;8.198;2022-11-20T11:35:53;5.60;99.90
20728;DHT22;10525;50.154;8.198;2022-11-20T11:38:27;5.80;99.90
20728;DHT22;10525;50.154;8.198;2022-11-20T11:40:56;5.80;99.90
20728;DHT22;10525;50.154;8.198;2022-11-20T11:43:25;5.90;99.90
20728;DHT22;10525;50.154;8.198;2022-11-20T11:46:29;5.90;99.90
20728;DHT22;10525;50.154;8.198;2022-11-20T11:49:00;5.80;99.90
20728;DHT22;10525;50.154;8.198;2022-11-20T11:51:32;5.80;99.90
20728;DHT22;10525;50.154;8.198;2022-11-20T11:54:01;5.70;99.90
20728;DHT22;10525;50.154;8.198;2022-11-20T11:56:30;5.80;99.90
20728;DHT22;10525;50.154;8.198;2022-11-20T11:59:05;5.80;99.90
20728;DHT22;10525;50.154;8.198;2022-11-20T12:01:37;6.00;99.90
20728;DHT22;10525;50.154;8.198;2022-11-20T12:04:13;6.00;99.90
20728;DHT22;10525;50.154;8.198;2022-11-20T12:06:45;6.30;99.90
20728;DHT22;10525;50.154;8.198;2022-11-20T12:09:13;6.20;99.90
20728;DHT22;10525;50.154;8.198;2022-11-20T12:11:45;6.20;99.90
20728;DHT22;10525;50.154;8.198;2022-11-20T12:14:16;6.00;99.90
20728;DHT22;10525;50.154;8.198;2022-11-20T12:16:45;6.00;99.90
20728;DHT22;10525;50.154;8.198;2022-11-20T12:19:14;6.00;99.90
20728;DHT22;10525;50.154;8.198;2022-11-20T12:21:49;6.10;99.90
20728;DHT22;10525;50.154;8.198;2022-11-20T12:27:41;6.10;99.90
20728;DHT22;10525;50.154;8.198;2022-11-20T12:30:11;5.90;99.90
20728;DHT22;10525;50.154;8.198;2022-11-20T12:36:01;6.00;99.90
20728;DHT22;10525;50.154;8.198;2022-11-20T12:39:07;5.80;99.90
20728;DHT22;10525;50.154;8.198;2022-11-20T12:42:08;5.80;99.90
20728;DHT22;10525;50.154;8.198;2022-11-20T12:45:06;5.80;99.90
20728;DHT22;10525;50.154;8.198;2022-11-20T12:47:55;6.00;99.90
20728;DHT22;10525;50.154;8.198;2022-11-20T12:50:32;6.10;99.90
20728;DHT22;10525;50.154;8.198;2022-11-20T12:53:07;6.40;99.90
20728;DHT22;10525;50.154;8.198;2022-11-20T12:55:45;6.30;99.90
20728;DHT22;10525;50.154;8.198;2022-11-20T12:58:19;6.40;99.90
20728;DHT22;10525;50.154;8.198;2022-11-20T13:00:55;6.40;99.90
20728;DHT22;10525;50.154;8.198;2022-11-20T13:03:40;6.50;99.90
20728;DHT22;10525;50.154;8.198;2022-11-20T13:06:14;6.30;99.90
20728;DHT22;10525;50.154;8.198;2022-11-20T13:08:47;6.40;99.90
20728;DHT22;10525;50.154;8.198;2022-11-20T13:11:19;6.50;99.90
20728;DHT22;10525;50.154;8.198;2022-11-20T13:14:18;6.60;99.90
20728;DHT22;10525;50.154;8.198;2022-11-20T13:16:50;6.60;99.90
20728;DHT22;10525;50.154;8.198;2022-11-20T13:19:18;6.70;99.90
20728;DHT22;10525;50.154;8.198;2022-11-20T13:21:46;6.80;99.90
20728;DHT22;10525;50.154;8.198;2022-11-20T13:24:24;6.80;99.90
20728;DHT22;10525;50.154;8.198;2022-11-20T13:27:16;6.90;99.90
20728;DHT22;10525;50.154;8.198;2022-11-20T13:29:46;7.00;99.90
20728;DHT22;10525;50.154;8.198;2022-11-20T13:32:15;6.90;99.90
20728;DHT22;10525;50.154;8.198;2022-11-20T13:34:52;6.90;99.90
20728;DHT22;10525;50.154;8.198;2022-11-20T13:37:26;6.90;99.90
20728;DHT22;10525;50.154;8.198;2022-11-20T13:40:13;6.80;99.90
20728;DHT22;10525;50.154;8.198;2022-11-20T13:42:44;6.80;99.90
20728;DHT22;10525;50.154;8.198;2022-11-20T13:45:21;6.80;99.90
20728;DHT22;10525;50.154;8.198;2022-11-20T13:47:49;6.80;99.90
20728;DHT22;10525;50.154;8.198;2022-11-20T13:50:16;6.70;99.90
20728;DHT22;10525;50.154;8.198;2022-11-20T13:52:49;6.60;99.90
20728;DHT22;10525;50.154;8.198;2022-11-20T13:55:23;6.60;99.90
20728;DHT22;10525;50.154;8.198;2022-11-20T13:58:07;6.50;99.90
20728;DHT22;10525;50.154;8.198;2022-11-20T14:00:44;6.40;99.90
20728;DHT22;10525;50.154;8.198;2022-11-20T14:03:17;6.30;99.90
20728;DHT22;10525;50.154;8.198;2022-11-20T14:05:50;6.20;99.90
20728;DHT22;10525;50.154;8.198;2022-11-20T14:08:24;6.20;99.90
20728;DHT22;10525;50.154;8.198;2022-11-20T14:11:02;6.20;99.90
20728;DHT22;10525;50.154;8.198;2022-11-20T14:13:29;6.20;99.90
20728;DHT22;10525;50.154;8.198;2022-11-20T14:15:57;6.20;99.90
20728;DHT22;10525;50.154;8.198;2022-11-20T14:18:25;6.10;99.90
20728;DHT22;10525;50.154;8.198;2022-11-20T14:20:52;6.10;99.90
20728;DHT22;10525;50.154;8.198;2022-11-20T14:23:24;6.10;99.90
20728;DHT22;10525;50.154;8.198;2022-11-20T14:25:53;6.00;99.90
20728;DHT22;10525;50.154;8.198;2022-11-20T14:28:25;6.00;99.90
20728;DHT22;10525;50.154;8.198;2022-11-20T14:30:53;5.90;99.90
20728;DHT22;10525;50.154;8.198;2022-11-20T14:33:20;5.80;99.90
20728;DHT22;10525;50.154;8.198;2022-11-20T14:35:51;5.80;99.90
20728;DHT22;10525;50.154;8.198;2022-11-20T14:38:21;5.80;99.90
20728;DHT22;10525;50.154;8.198;2022-11-20T14:40:48;5.80;99.90
20728;DHT22;10525;50.154;8.198;2022-11-20T14:43:22;5.80;99.90
20728;DHT22;10525;50.154;8.198;2022-11-20T14:45:55;5.80;99.90
20728;DHT22;10525;50.154;8.198;2022-11-20T14:48:26;5.70;99.90
20728;DHT22;10525;50.154;8.198;2022-11-20T14:50:54;5.70;99.90
20728;DHT22;10525;50.154;8.198;2022-11-20T14:53:22;5.70;99.90
20728;DHT22;10525;50.154;8.198;2022-11-20T14:55:56;5.70;99.90
20728;DHT22;10525;50.154;8.198;2022-11-20T14:58:26;5.60;99.90
20728;DHT22;10525;50.154;8.198;2022-11-20T15:00:55;5.60;99.90
20728;DHT22;10525;50.154;8.198;2022-11-20T15:03:23;5.40;99.90
20728;DHT22;10525;50.154;8.198;2022-11-20T15:05:50;5.40;99.90
20728;DHT22;10525;50.154;8.198;2022-11-20T15:08:18;5.40;99.90
20728;DHT22;10525;50.154;8.198;2022-11-20T15:10:46;5.40;99.90
20728;DHT22;10525;50.154;8.198;2022-11-20T15:13:16;5.40;99.90
20728;DHT22;10525;50.154;8.198;2022-11-20T15:15:46;5.40;99.90
20728;DHT22;10525;50.154;8.198;2022-11-20T15:18:16;5.40;99.90
20728;DHT22;10525;50.154;8.198;2022-11-20T15:20:44;5.30;99.90
20728;DHT22;10525;50.154;8.198;2022-11-20T15:23:12;5.40;99.90
20728;DHT22;10525;50.154;8.198;2022-11-20T15:25:40;5.30;99.90
20728;DHT22;10525;50.154;8.198;2022-11-20T15:28:13;5.30;99.90
20728;DHT22;10525;50.154;8.198;2022-11-20T15:30:42;5.40;99.90
20728;DHT22;10525;50.154;8.198;2022-11-20T15:33:10;5.30;99.90
20728;DHT22;10525;50.154;8.198;2022-11-20T15:35:37;5.30;99.90
20728;DHT22;10525;50.154;8.198;2022-11-20T15:38:03;5.20;99.90
20728;DHT22;10525;50.154;8.198;2022-11-20T15:40:30;5.20;99.90
20728;DHT22;10525;50.154;8.198;2022-11-20T15:42:57;5.20;99.90
20728;DHT22;10525;50.154;8.198;2022-11-20T15:45:35;5.20;99.90
20728;DHT22;10525;50.154;8.198;2022-11-20T15:48:04;5.20;99.90
20728;DHT22;10525;50.154;8.198;2022-11-20T15:50:39;5.10;99.90
20728;DHT22;10525;50.154;8.198;2022-11-20T15:53:09;5.10;99.90
20728;DHT22;10525;50.154;8.198;2022-11-20T15:55:36;5.10;99.90
20728;DHT22;10525;50.154;8.198;2022-11-20T15:58:03;5.10;99.90
20728;DHT22;10525;50.154;8.198;2022-11-20T16:00:29;5.10;99.90
20728;DHT22;10525;50.154;8.198;2022-11-20T16:02:56;5.20;99.90
20728;DHT22;10525;50.154;8.198;2022-11-20T16:05:23;5.10;99.90
20728;DHT22;10525;50.154;8.198;2022-11-20T16:07:51;5.10;99.90